Time;durP1;ratioP1;P1;durP2;ratioP2;P2;SDS_P1;SDS_P2;PMS_P1;PMS_P2;Temp;Humidity;BMP_temperature;BMP_pressure;BME280_temperature;BME280_humidity;BME280_pressure;Samples;Min_cycle;Max_cycle;Signal;HPM_P1;HPM_P2
2021/03/28 00:00:32;;;;;;;4.17;3.00;;;;;;;4.52;72.70;99265.72;5021033;28;20215;-67
2021/03/28 00:03:01;;;;;;;5.63;2.70;;;;;;;4.60;73.45;99270.50;5024623;28;20228;-68
2021/03/28 00:05:30;;;;;;;4.33;2.90;;;;;;;4.64;74.02;99264.13;5023050;28;20208;-70
2021/03/28 00:07:59;;;;;;;6.23;2.90;;;;;;;4.59;73.92;99274.06;5024502;28;20204;-68
2021/03/28 00:10:32;;;;;;;3.03;2.73;;;;;;;4.44;74.78;99276.69;5021944;28;20211;-70
2021/03/28 00:13:04;;;;;;;3.27;2.67;;;;;;;4.42;74.98;99277.72;5022772;28;20224;-67
2021/03/28 00:15:34;;;;;;;3.63;2.70;;;;;;;4.41;75.61;99265.56;5016180;28;20234;-66
2021/03/28 00:18:16;;;;;;;4.70;2.87;;;;;;;4.39;76.17;99259.56;5019735;28;20673;-69
2021/03/28 00:20:45;;;;;;;6.37;2.87;;;;;;;4.41;76.43;99260.31;5021234;28;20471;-68
2021/03/28 00:23:29;;;;;;;6.70;3.00;;;;;;;4.48;76.15;99261.59;5017758;28;20411;-68
2021/03/28 00:25:59;;;;;;;3.97;3.30;;;;;;;4.41;76.47;99262.94;5017097;28;20199;-67
2021/03/28 00:28:39;;;;;;;6.77;3.73;;;;;;;4.40;76.71;99269.09;5019895;28;20196;-70
2021/03/28 00:31:17;;;;;;;3.17;2.77;;;;;;;4.42;76.66;99265.44;5021009;28;20204;-66
2021/03/28 00:33:56;;;;;;;4.67;3.20;;;;;;;4.40;76.51;99259.44;5023664;28;20216;-70
2021/03/28 00:36:30;;;;;;;4.80;2.83;;;;;;;4.40;76.23;99255.97;5022231;28;20208;-70
2021/03/28 00:38:59;;;;;;;3.50;3.20;;;;;;;4.34;77.04;99262.44;5022867;28;20200;-69
2021/03/28 00:41:29;;;;;;;4.80;3.53;;;;;;;4.45;76.65;99256.53;5020664;28;20572;-70
2021/03/28 00:44:00;;;;;;;4.43;2.70;;;;;;;4.46;76.77;99252.97;5023000;28;20204;-68
2021/03/28 00:46:43;;;;;;;4.63;2.90;;;;;;;4.46;76.52;99259.06;5021567;28;20196;-68
2021/03/28 00:49:21;;;;;;;3.53;3.00;;;;;;;4.61;76.01;99259.91;5019279;28;20208;-68
2021/03/28 00:51:51;;;;;;;5.70;3.80;;;;;;;4.49;76.17;99255.41;5019255;28;20239;-67
2021/03/28 00:54:22;;;;;;;4.83;3.13;;;;;;;4.43;76.63;99253.16;5022787;28;20200;-69
2021/03/28 00:56:53;;;;;;;5.97;2.67;;;;;;;4.53;76.41;99254.28;5019765;28;20715;-70
2021/03/28 00:59:23;;;;;;;4.63;3.13;;;;;;;4.45;76.56;99240.78;5022623;28;20215;-66
2021/03/28 01:02:03;;;;;;;3.57;2.90;;;;;;;4.47;76.83;99246.78;5022413;28;20219;-67
2021/03/28 01:05:07;;;;;;;5.87;3.20;;;;;;;4.46;77.04;99245.09;5020176;28;20833;-68
2021/03/28 01:07:53;;;;;;;4.03;2.90;;;;;;;4.54;77.21;99240.22;5021057;28;20207;-70
2021/03/28 01:11:08;;;;;;;5.20;2.80;;;;;;;4.54;77.04;99240.22;5021991;28;20204;-69
2021/03/28 01:14:20;;;;;;;4.83;2.93;;;;;;;4.55;77.59;99241.91;5018328;28;20378;-67
2021/03/28 01:17:10;;;;;;;6.40;3.10;;;;;;;4.57;77.66;99231.31;5014077;28;20684;-69
2021/03/28 01:19:54;;;;;;;3.83;3.17;;;;;;;4.56;77.58;99235.72;5016237;28;20204;-70
2021/03/28 01:22:30;;;;;;;5.17;3.90;;;;;;;4.48;78.04;99220.44;5019714;28;20223;-69
2021/03/28 01:25:00;;;;;;;3.80;3.17;;;;;;;4.45;78.15;99230.28;5021908;28;20203;-68
2021/03/28 01:27:30;;;;;;;6.40;3.63;;;;;;;4.43;78.52;99227.75;5022798;28;20292;-68
2021/03/28 01:30:09;;;;;;;7.87;3.77;;;;;;;4.46;78.67;99239.84;5016299;28;20284;-68
2021/03/28 01:32:38;;;;;;;5.40;3.57;;;;;;;4.53;78.21;99232.44;5014637;28;20243;-69
2021/03/28 01:35:21;;;;;;;7.07;3.83;;;;;;;4.49;78.39;99237.03;5021869;28;20208;-69
2021/03/28 01:37:51;;;;;;;5.83;3.60;;;;;;;4.42;79.14;99231.31;5015289;28;20293;-70
2021/03/28 01:40:21;;;;;;;4.83;3.43;;;;;;;4.43;79.28;99232.16;5020604;28;20214;-69
2021/03/28 01:42:58;;;;;;;5.70;3.33;;;;;;;4.45;79.45;99236.38;5021550;28;20236;-70
2021/03/28 01:45:33;;;;;;;6.90;3.90;;;;;;;4.45;79.53;99236.38;5018605;28;20200;-69
2021/03/28 01:48:17;;;;;;;5.07;3.60;;;;;;;4.39;79.83;99231.50;5022037;28;20215;-70
2021/03/28 01:50:51;;;;;;;7.47;3.33;;;;;;;4.34;80.22;99230.94;5017812;28;20302;-69
2021/03/28 01:53:25;;;;;;;5.30;3.60;;;;;;;4.31;80.76;99233.75;5021339;28;20228;-69
2021/03/28 01:55:59;;;;;;;5.43;3.53;;;;;;;4.27;80.62;99233.09;5016794;28;20232;-70
2021/03/28 01:58:36;;;;;;;3.90;3.23;;;;;;;4.35;80.36;99233.47;5021152;28;20582;-69
2021/03/28 02:01:15;;;;;;;7.70;3.87;;;;;;;4.37;80.80;99237.81;5021852;28;20293;-70
2021/03/28 02:03:55;;;;;;;5.87;3.80;;;;;;;4.32;80.57;99230.19;5015136;28;20807;-69
2021/03/28 02:06:33;;;;;;;3.73;3.30;;;;;;;4.29;80.44;99225.97;5019751;28;20743;-69
2021/03/28 02:09:06;;;;;;;4.00;3.53;;;;;;;4.31;81.04;99226.72;5016608;28;20212;-71
2021/03/28 02:11:48;;;;;;;4.40;3.43;;;;;;;4.29;80.68;99228.59;5020500;28;20274;-70
2021/03/28 02:14:32;;;;;;;3.97;3.20;;;;;;;4.41;80.39;99226.19;5021281;28;20660;-69
2021/03/28 02:17:03;;;;;;;3.67;3.20;;;;;;;4.35;81.02;99237.88;5014227;28;20235;-70
2021/03/28 02:19:32;;;;;;;3.60;3.30;;;;;;;4.30;81.33;99227.66;5018823;28;20527;-68
2021/03/28 02:22:11;;;;;;;6.10;3.97;;;;;;;4.28;81.68;99233.94;5019000;28;20264;-70
2021/03/28 02:24:47;;;;;;;4.90;3.47;;;;;;;4.22;81.72;99235.16;5017158;28;20495;-68
2021/03/28 02:27:19;;;;;;;3.73;3.30;;;;;;;4.29;81.72;99231.22;5019451;28;20244;-70
2021/03/28 02:29:52;;;;;;;6.90;4.27;;;;;;;4.24;81.29;99237.69;5017354;28;20204;-70
2021/03/28 02:32:30;;;;;;;5.70;4.13;;;;;;;4.30;81.38;99238.16;5017595;28;20227;-71
2021/03/28 02:35:06;;;;;;;4.83;3.33;;;;;;;4.35;81.70;99235.25;5014467;28;20215;-67
2021/03/28 02:37:46;;;;;;;6.63;3.17;;;;;;;4.41;81.05;99239.31;5019263;28;20630;-70
2021/03/28 02:40:16;;;;;;;4.83;3.60;;;;;;;4.30;81.35;99242.56;5018929;28;20577;-69
2021/03/28 02:42:59;;;;;;;8.23;2.90;;;;;;;4.24;81.41;99235.06;5017261;28;20229;-70
2021/03/28 02:45:29;;;;;;;4.60;3.60;;;;;;;4.19;81.94;99243.22;5017574;28;20223;-68
2021/03/28 02:48:18;;;;;;;4.87;3.50;;;;;;;4.13;82.45;99239.16;5016378;28;20215;-69
2021/03/28 02:50:57;;;;;;;3.77;3.40;;;;;;;4.18;82.32;99233.66;5018869;28;20215;-70
2021/03/28 02:53:29;;;;;;;7.17;3.87;;;;;;;4.29;81.77;99241.72;5020091;28;20738;-71
2021/03/28 02:56:09;;;;;;;7.63;3.47;;;;;;;4.12;81.89;99239.28;5020199;28;20196;-67
2021/03/28 02:58:49;;;;;;;3.80;3.50;;;;;;;3.96;83.27;99249.84;5016506;28;20208;-69
2021/03/28 03:01:37;;;;;;;4.93;3.40;;;;;;;3.89;83.29;99246.72;5020540;28;20207;-67
2021/03/28 03:04:32;;;;;;;6.47;3.23;;;;;;;3.81;83.91;99241.09;5017707;28;20215;-70
2021/03/28 03:07:21;;;;;;;10.90;4.57;;;;;;;3.68;84.20;99241.81;5011287;28;20197;-70
2021/03/28 03:10:12;;;;;;;6.63;3.57;;;;;;;3.55;85.01;99236.44;5014312;28;20211;-68
2021/03/28 03:12:44;;;;;;;6.43;3.73;;;;;;;3.47;85.49;99236.88;5018607;28;20702;-69
2021/03/28 03:15:32;;;;;;;7.57;4.00;;;;;;;3.33;86.43;99240.28;5016695;28;20212;-68
2021/03/28 03:18:39;;;;;;;5.67;3.43;;;;;;;3.50;86.68;99235.00;5018643;28;20235;-69
2021/03/28 03:21:40;;;;;;;6.70;4.13;;;;;;;3.55;85.82;99230.34;4973841;28;20200;-69
2021/03/28 03:24:29;;;;;;;7.80;3.60;;;;;;;3.56;86.52;99232.88;5015759;28;20215;-70
2021/03/28 03:27:26;;;;;;;6.53;3.60;;;;;;;3.54;86.35;99228.66;5018493;28;20759;-69
2021/03/28 03:30:32;;;;;;;7.87;3.50;;;;;;;3.56;86.35;99243.38;5017862;28;20295;-70
2021/03/28 03:33:24;;;;;;;9.77;4.67;;;;;;;3.57;86.33;99233.72;4988514;28;20740;-70
2021/03/28 03:36:00;;;;;;;4.23;3.77;;;;;;;3.63;86.12;99233.38;5017537;28;20747;-70
2021/03/28 03:39:16;;;;;;;5.83;4.03;;;;;;;3.76;86.02;99236.97;5018550;28;20713;-66
2021/03/28 03:42:39;;;;;;;4.13;3.53;;;;;;;3.98;83.36;99237.47;4961085;28;20317;-66
2021/03/28 03:45:32;;;;;;;4.87;3.47;;;;;;;3.92;83.29;99241.28;4971670;28;20214;-70
2021/03/28 03:48:05;;;;;;;8.00;3.50;;;;;;;3.96;82.28;99250.66;5016471;28;20203;-70
2021/03/28 03:51:04;;;;;;;3.80;2.90;;;;;;;3.85;82.38;99256.56;5017040;28;20324;-68
2021/03/28 03:53:43;;;;;;;5.23;2.80;;;;;;;3.82;83.03;99248.88;4999109;28;20239;-70
2021/03/28 03:56:18;;;;;;;7.00;3.67;;;;;;;3.82;83.28;99251.50;5017396;28;20235;-70
2021/03/28 03:59:07;;;;;;;6.87;3.23;;;;;;;3.81;82.96;99259.44;5018718;28;20649;-68
2021/03/28 04:01:37;;;;;;;3.00;2.80;;;;;;;3.78;83.18;99257.00;5018206;28;20644;-68
2021/03/28 04:04:11;;;;;;;4.97;3.17;;;;;;;3.81;82.83;99256.81;5016938;28;20200;-70
2021/03/28 04:07:15;;;;;;;4.43;3.10;;;;;;;3.89;81.56;99270.34;5016986;28;20196;-69
2021/03/28 04:10:08;;;;;;;6.97;3.10;;;;;;;4.04;80.98;99271.22;5019091;28;20208;-69
2021/03/28 04:12:48;;;;;;;5.23;2.97;;;;;;;4.04;79.98;99271.22;5019142;28;20251;-71
2021/03/28 04:15:35;;;;;;;3.93;2.90;;;;;;;4.03;80.42;99270.38;5016769;28;20208;-67
2021/03/28 04:18:10;;;;;;;2.90;2.57;;;;;;;3.88;79.98;99266.88;5019993;28;20220;-69
2021/03/28 04:20:44;;;;;;;3.73;3.00;;;;;;;3.81;79.93;99280.44;5017731;28;20287;-70
2021/03/28 04:23:46;;;;;;;4.27;2.97;;;;;;;3.79;80.53;99277.06;5018005;28;20227;-66
2021/03/28 04:26:27;;;;;;;6.53;3.00;;;;;;;3.79;80.69;99274.44;5011446;28;20688;-70
2021/03/28 04:28:59;;;;;;;7.70;3.30;;;;;;;3.74;80.07;99282.56;5018238;28;20204;-70
2021/03/28 04:31:59;;;;;;;8.00;4.77;;;;;;;3.79;80.06;99275.28;5016102;28;20209;-67
2021/03/28 04:34:28;;;;;;;4.37;2.73;;;;;;;3.91;79.40;99278.94;5015348;28;20215;-70
2021/03/28 04:37:11;;;;;;;6.23;3.47;;;;;;;3.86;79.94;99273.13;5016410;28;20228;-70
2021/03/28 04:40:26;;;;;;;7.67;2.93;;;;;;;3.96;78.88;99281.31;5017776;28;20204;-70
2021/03/28 04:43:32;;;;;;;3.53;2.87;;;;;;;3.92;78.76;99280.63;5016963;28;20553;-69
2021/03/28 04:46:21;;;;;;;6.63;3.33;;;;;;;3.91;79.06;99278.94;5020698;28;20219;-69
2021/03/28 04:48:59;;;;;;;4.23;2.50;;;;;;;3.90;78.60;99293.84;5015721;28;20681;-70
2021/03/28 04:51:38;;;;;;;4.27;2.47;;;;;;;3.98;78.56;99289.94;5020586;28;20228;-69
2021/03/28 04:54:51;;;;;;;5.73;3.47;;;;;;;3.98;78.85;99300.44;5018196;28;20212;-69
2021/03/28 04:57:25;;;;;;;7.57;3.00;;;;;;;3.88;78.86;99298.34;5020175;28;20217;-69
2021/03/28 05:00:20;;;;;;;4.90;2.70;;;;;;;3.99;78.25;99305.59;5018419;28;20195;-69
2021/03/28 05:03:18;;;;;;;8.23;3.43;;;;;;;4.05;78.06;99296.50;5018447;28;20239;-69
2021/03/28 05:05:54;;;;;;;3.33;2.50;;;;;;;4.04;77.58;99305.31;5020297;28;20587;-70
2021/03/28 05:08:55;;;;;;;7.97;3.30;;;;;;;3.95;77.51;99290.94;5021336;28;20262;-69
2021/03/28 05:12:03;;;;;;;7.50;3.63;;;;;;;4.00;77.25;99296.78;4958190;28;20212;-68
2021/03/28 05:15:09;;;;;;;4.40;2.87;;;;;;;4.04;77.33;99295.69;4957488;28;20249;-70
2021/03/28 05:18:09;;;;;;;5.10;2.50;;;;;;;4.00;77.57;99298.56;5020311;28;20220;-67
2021/03/28 05:20:59;;;;;;;4.53;3.30;;;;;;;4.16;77.04;99301.94;5020032;28;20204;-69
2021/03/28 05:23:48;;;;;;;4.80;3.10;;;;;;;4.12;77.07;99299.63;5017048;28;20229;-70
2021/03/28 05:26:51;;;;;;;7.17;3.80;;;;;;;4.24;75.81;99293.63;5020128;28;20208;-68
2021/03/28 05:29:49;;;;;;;3.30;2.60;;;;;;;4.34;75.63;99297.38;5022315;28;20219;-69
2021/03/28 05:32:46;;;;;;;5.63;3.00;;;;;;;4.31;76.38;99292.31;5020848;28;20632;-71
2021/03/28 05:35:51;;;;;;;9.17;3.00;;;;;;;4.40;75.66;99295.34;5018254;28;20223;-71
2021/03/28 05:38:45;;;;;;;7.17;3.27;;;;;;;4.57;74.92;99287.28;4971903;28;20235;-71
2021/03/28 05:41:36;;;;;;;5.10;2.73;;;;;;;4.67;74.03;99291.97;5020554;28;20215;-71
2021/03/28 05:44:40;;;;;;;4.67;3.00;;;;;;;4.78;74.37;99292.16;5022269;28;20200;-72
2021/03/28 05:47:17;;;;;;;4.33;2.77;;;;;;;4.73;73.52;99300.31;5019303;28;20204;-72
2021/03/28 05:49:54;;;;;;;6.87;3.17;;;;;;;4.82;73.23;99298.91;5018635;28;20218;-69
2021/03/28 05:53:07;;;;;;;4.03;2.53;;;;;;;4.89;73.38;99302.84;5020127;28;20223;-71
2021/03/28 05:56:06;;;;;;;5.20;2.80;;;;;;;4.98;72.21;99308.47;4992132;28;20382;-69
2021/03/28 05:58:44;;;;;;;4.10;3.10;;;;;;;5.11;72.11;99306.75;5021470;28;20207;-70
2021/03/28 06:01:22;;;;;;;6.13;2.97;;;;;;;5.13;71.63;99309.28;5020444;28;20204;-69
2021/03/28 06:04:32;;;;;;;4.03;2.93;;;;;;;5.05;72.36;99322.91;5019229;28;20613;-70
2021/03/28 06:07:45;;;;;;;4.83;2.80;;;;;;;5.05;72.54;99331.63;5019133;28;20777;-72
2021/03/28 06:10:54;;;;;;;3.77;2.83;;;;;;;5.06;72.20;99317.56;5018118;28;20534;-71
2021/03/28 06:13:59;;;;;;;4.97;2.70;;;;;;;5.19;72.55;99330.78;5016236;28;20770;-71
2021/03/28 06:16:42;;;;;;;3.90;2.90;;;;;;;5.15;72.07;99326.66;5019228;28;20665;-72
2021/03/28 06:19:45;;;;;;;10.27;3.27;;;;;;;5.31;72.00;99334.41;5014155;28;20211;-69
2021/03/28 06:22:48;;;;;;;5.97;3.23;;;;;;;5.28;71.78;99328.50;4953228;28;20231;-69
2021/03/28 06:25:35;;;;;;;7.57;3.17;;;;;;;5.44;70.97;99331.00;5018790;28;20204;-71
2021/03/28 06:28:39;;;;;;;3.67;2.97;;;;;;;5.54;71.77;99333.88;5021291;28;20199;-72
2021/03/28 06:31:48;;;;;;;3.67;2.40;;;;;;;5.91;70.53;99331.50;5019240;28;20207;-72
2021/03/28 06:34:43;;;;;;;5.40;2.43;;;;;;;5.89;68.50;99338.63;5017689;28;20227;-70
2021/03/28 06:38:03;;;;;;;3.33;3.00;;;;;;;6.10;71.92;99332.91;5020207;28;20224;-72
2021/03/28 06:40:45;;;;;;;4.70;2.73;;;;;;;6.01;68.36;99334.38;5018900;28;20220;-70
2021/03/28 06:43:39;;;;;;;3.77;2.73;;;;;;;6.18;68.76;99334.09;5019789;28;20221;-72
2021/03/28 06:46:30;;;;;;;5.00;2.53;;;;;;;6.19;67.38;99334.94;5018099;28;20290;-72
2021/03/28 06:49:39;;;;;;;4.63;2.80;;;;;;;6.26;67.84;99338.00;5020325;28;20967;-70
2021/03/28 06:52:37;;;;;;;4.57;2.93;;;;;;;6.41;67.36;99339.59;4982103;28;20228;-70
2021/03/28 06:55:35;;;;;;;6.13;2.60;;;;;;;6.66;66.20;99354.56;4980361;28;20212;-68
2021/03/28 06:58:37;;;;;;;3.97;2.70;;;;;;;6.36;64.82;99349.59;5018595;28;20232;-69
2021/03/28 07:01:47;;;;;;;3.50;2.83;;;;;;;6.41;64.52;99350.13;5017143;28;20212;-69
2021/03/28 07:04:49;;;;;;;5.07;2.90;;;;;;;6.55;65.66;99356.25;5017918;28;20211;-73
2021/03/28 07:08:06;;;;;;;4.33;2.93;;;;;;;6.48;64.75;99356.69;5017569;28;20379;-73
2021/03/28 07:10:40;;;;;;;5.63;3.40;;;;;;;6.41;64.13;99373.81;4993635;28;20209;-69
2021/03/28 07:13:35;;;;;;;4.67;3.00;;;;;;;6.58;64.50;99367.41;5017661;28;20235;-72
2021/03/28 07:16:22;;;;;;;5.57;2.90;;;;;;;6.83;63.08;99365.72;5020259;28;20262;-70
2021/03/28 07:19:24;;;;;;;4.07;2.53;;;;;;;6.71;63.16;99364.78;5012843;28;20192;-72
2021/03/28 07:22:00;;;;;;;5.00;3.23;;;;;;;6.70;64.06;99364.91;5013371;28;20234;-73
2021/03/28 07:24:58;;;;;;;4.17;3.10;;;;;;;6.73;63.71;99367.31;5018780;28;20215;-71
2021/03/28 07:28:04;;;;;;;7.23;3.07;;;;;;;6.79;63.21;99366.91;5018428;28;20196;-72
2021/03/28 07:30:39;;;;;;;2.67;2.47;;;;;;;6.92;63.34;99374.81;5006398;28;20208;-72
2021/03/28 07:33:28;;;;;;;8.20;2.80;;;;;;;6.91;62.82;99376.56;5018829;28;20315;-70
2021/03/28 07:36:21;;;;;;;6.27;3.07;;;;;;;7.01;63.06;99368.88;5017795;28;20204;-70
2021/03/28 07:39:09;;;;;;;5.63;2.83;;;;;;;7.10;62.84;99365.59;5002972;28;20315;-72
2021/03/28 07:41:49;;;;;;;5.07;3.30;;;;;;;7.05;62.85;99380.06;5017276;28;20364;-71
2021/03/28 07:45:06;;;;;;;9.03;2.87;;;;;;;7.17;63.24;99380.97;5017054;28;20200;-71
2021/03/28 07:48:05;;;;;;;5.57;3.73;;;;;;;7.01;62.14;99383.84;5015472;28;20216;-71
2021/03/28 07:51:05;;;;;;;8.17;5.50;;;;;;;7.28;61.51;99380.22;5014148;28;20204;-71
2021/03/28 07:54:10;;;;;;;8.67;4.77;;;;;;;7.11;61.91;99382.25;5020246;28;20230;-68
2021/03/28 07:56:55;;;;;;;3.37;3.03;;;;;;;7.27;62.28;99376.75;5016759;28;20223;-70
2021/03/28 07:59:36;;;;;;;5.17;3.10;;;;;;;7.41;61.37;99385.47;5015930;28;20208;-69
2021/03/28 08:02:23;;;;;;;7.23;2.87;;;;;;;7.71;61.78;99381.59;5018099;28;20235;-71
2021/03/28 08:05:24;;;;;;;6.90;3.07;;;;;;;8.20;59.26;99382.41;5017332;28;20330;-70
2021/03/28 08:07:55;;;;;;;7.67;3.57;;;;;;;8.32;59.46;99376.19;4999339;28;20205;-71
2021/03/28 08:10:46;;;;;;;8.70;4.27;;;;;;;8.63;57.73;99371.25;5015771;28;20196;-70
2021/03/28 08:13:51;;;;;;;4.50;2.40;;;;;;;8.60;59.42;99370.66;5013940;28;20540;-68
2021/03/28 08:16:40;;;;;;;5.17;2.33;;;;;;;8.72;59.45;99379.44;5018612;28;20383;-70
2021/03/28 08:19:26;;;;;;;5.53;3.03;;;;;;;8.54;58.30;99383.38;5007924;28;20327;-70
2021/03/28 08:22:01;;;;;;;6.97;3.23;;;;;;;8.78;58.52;99395.69;5017240;28;20817;-68
2021/03/28 08:25:05;;;;;;;6.87;2.53;;;;;;;8.71;57.77;99401.53;5022410;28;20234;-70
2021/03/28 08:27:56;;;;;;;5.80;3.00;;;;;;;8.83;57.93;99400.59;5021468;28;20209;-70
2021/03/28 08:30:36;;;;;;;6.73;2.70;;;;;;;8.73;58.49;99402.28;5017695;28;20208;-68
2021/03/28 08:33:47;;;;;;;5.07;3.13;;;;;;;8.99;56.98;99397.59;5024199;28;20717;-67
2021/03/28 08:36:42;;;;;;;6.13;3.03;;;;;;;8.81;56.57;99392.78;4957824;28;20257;-67
2021/03/28 08:39:21;;;;;;;7.47;2.90;;;;;;;8.66;57.79;99410.66;5015017;28;20212;-68
2021/03/28 08:42:09;;;;;;;4.13;2.87;;;;;;;8.43;58.16;99414.16;5019460;28;20220;-67
2021/03/28 08:45:12;;;;;;;4.73;3.03;;;;;;;8.39;58.50;99414.41;5018113;28;20216;-68
2021/03/28 08:48:20;;;;;;;7.00;2.97;;;;;;;8.31;58.47;99408.00;5020174;28;20200;-70
2021/03/28 08:50:56;;;;;;;4.00;2.90;;;;;;;8.27;58.36;99407.41;5022901;28;20604;-68
2021/03/28 08:54:03;;;;;;;6.03;3.40;;;;;;;8.34;58.78;99402.50;5021881;28;20223;-66
2021/03/28 08:57:00;;;;;;;5.20;3.03;;;;;;;8.52;57.38;99408.22;5019612;28;20651;-69
2021/03/28 08:59:37;;;;;;;8.03;3.57;;;;;;;8.48;57.80;99412.88;5022396;28;20209;-68
2021/03/28 09:02:22;;;;;;;5.80;3.77;;;;;;;8.69;57.30;99418.38;5018818;28;20224;-67
2021/03/28 09:05:05;;;;;;;8.17;3.60;;;;;;;8.82;55.34;99420.06;5020457;28;20211;-66
2021/03/28 09:07:42;;;;;;;5.60;3.50;;;;;;;8.76;56.42;99412.59;5020461;28;20208;-68
2021/03/28 09:10:35;;;;;;;8.23;3.20;;;;;;;8.95;55.42;99422.59;5021775;28;20204;-68
2021/03/28 09:13:14;;;;;;;5.53;2.67;;;;;;;9.01;55.68;99424.78;5012859;28;20290;-69
2021/03/28 09:15:54;;;;;;;5.00;3.57;;;;;;;9.24;54.97;99420.31;5017896;28;20495;-68
2021/03/28 09:18:34;;;;;;;6.23;3.20;;;;;;;9.49;54.74;99415.75;5023533;28;20220;-68
2021/03/28 09:21:29;;;;;;;3.87;2.77;;;;;;;9.43;53.06;99421.53;5019191;28;20295;-68
2021/03/28 09:24:06;;;;;;;4.97;3.10;;;;;;;9.11;53.55;99420.47;5019299;28;20205;-67
2021/03/28 09:26:41;;;;;;;9.40;2.90;;;;;;;9.11;54.13;99420.47;5015472;28;20616;-66
2021/03/28 09:29:54;;;;;;;3.57;2.83;;;;;;;9.33;54.69;99412.66;5021703;28;20215;-69
2021/03/28 09:32:46;;;;;;;9.30;3.30;;;;;;;9.62;52.97;99412.13;5004175;28;20235;-67
2021/03/28 09:35:48;;;;;;;4.67;2.97;;;;;;;9.89;52.62;99409.06;5018331;28;20212;-70
2021/03/28 09:38:50;;;;;;;4.37;2.63;;;;;;;9.32;52.12;99409.16;5018874;28;20247;-70
2021/03/28 09:41:35;;;;;;;4.13;2.97;;;;;;;9.56;52.21;99398.41;5020734;28;20351;-68
2021/03/28 09:44:05;;;;;;;5.00;2.70;;;;;;;10.21;51.23;99399.44;5021178;28;20209;-70
2021/03/28 09:46:41;;;;;;;4.97;3.20;;;;;;;10.47;49.86;99399.94;5016567;28;20204;-68
2021/03/28 09:49:31;;;;;;;3.17;2.87;;;;;;;10.71;49.39;99399.69;5019612;28;20215;-69
2021/03/28 09:52:26;;;;;;;6.77;3.30;;;;;;;10.21;49.75;99399.44;5020898;28;20221;-67
2021/03/28 09:55:24;;;;;;;7.67;3.20;;;;;;;10.02;50.80;99400.94;5017389;28;20205;-68
2021/03/28 09:58:46;;;;;;;4.50;2.80;;;;;;;10.30;51.26;99397.84;5019636;28;20228;-68
2021/03/28 10:01:46;;;;;;;4.93;3.07;;;;;;;10.91;47.76;99401.59;5020516;28;20204;-69
2021/03/28 10:04:25;;;;;;;3.17;2.87;;;;;;;10.85;46.80;99389.72;5018757;28;20211;-70
2021/03/28 10:06:59;;;;;;;3.73;2.63;;;;;;;11.12;47.08;99375.03;5019593;28;20214;-69
2021/03/28 10:09:59;;;;;;;4.20;2.40;;;;;;;10.92;44.46;99382.91;5020162;28;20582;-68
2021/03/28 10:12:30;;;;;;;5.00;2.43;;;;;;;10.89;44.72;99379.69;5018502;28;20266;-68
2021/03/28 10:15:03;;;;;;;2.47;2.20;;;;;;;11.12;44.33;99381.19;5020881;28;20208;-68
2021/03/28 10:17:39;;;;;;;6.23;2.90;;;;;;;11.20;44.38;99387.63;5018108;28;20254;-67
2021/03/28 10:20:34;;;;;;;2.20;2.00;;;;;;;11.83;42.70;99374.09;5021366;28;20204;-67
2021/03/28 10:23:12;;;;;;;3.30;2.20;;;;;;;11.68;42.57;99378.16;5018880;28;20224;-67
2021/03/28 10:25:47;;;;;;;4.03;2.60;;;;;;;10.92;44.15;99384.72;5019375;28;20208;-67
2021/03/28 10:28:46;;;;;;;5.93;3.07;;;;;;;10.83;43.35;99373.09;5020890;28;20287;-69
2021/03/28 10:31:28;;;;;;;2.73;2.47;;;;;;;11.31;43.66;99376.91;5021234;28;20358;-68
2021/03/28 10:34:36;;;;;;;4.93;2.80;;;;;;;10.91;41.88;99385.69;5020503;28;20234;-68
2021/03/28 10:37:16;;;;;;;3.87;2.57;;;;;;;11.06;42.89;99359.66;5014742;28;20832;-68
2021/03/28 10:40:03;;;;;;;3.23;2.40;;;;;;;11.36;42.81;99357.94;5019775;28;20216;-69
2021/03/28 10:42:42;;;;;;;4.00;3.00;;;;;;;11.15;42.28;99364.16;5017491;28;20219;-69
2021/03/28 10:45:31;;;;;;;4.17;2.60;;;;;;;11.29;42.99;99362.94;5017943;28;20541;-68
2021/03/28 10:48:36;;;;;;;3.13;2.83;;;;;;;11.56;42.55;99356.19;5019247;28;20299;-69
2021/03/28 10:51:39;;;;;;;4.60;3.23;;;;;;;12.25;41.27;99358.88;5019085;28;20258;-68
2021/03/28 10:54:42;;;;;;;6.40;2.93;;;;;;;12.99;40.21;99365.28;5018364;28;20204;-68
2021/03/28 10:57:47;;;;;;;4.40;2.73;;;;;;;12.55;39.69;99373.00;4989618;28;20673;-67
2021/03/28 11:00:48;;;;;;;4.47;2.60;;;;;;;11.49;40.83;99353.22;5014938;28;20209;-68
2021/03/28 11:03:39;;;;;;;2.57;1.97;;;;;;;12.35;38.83;99350.91;4991566;28;20310;-68
2021/03/28 11:06:34;;;;;;;2.90;2.47;;;;;;;12.29;39.18;99353.16;5016131;28;20207;-69
2021/03/28 11:09:09;;;;;;;2.67;2.47;;;;;;;12.53;38.13;99346.56;5019802;28;20558;-67
2021/03/28 11:12:12;;;;;;;3.73;2.30;;;;;;;12.42;38.84;99347.56;5016867;28;20230;-69
2021/03/28 11:15:02;;;;;;;2.53;2.33;;;;;;;11.71;40.37;99344.16;5005964;28;20200;-68
2021/03/28 11:18:07;;;;;;;5.37;2.43;;;;;;;12.42;39.25;99341.38;5019107;28;20228;-69
2021/03/28 11:20:44;;;;;;;3.33;2.20;;;;;;;12.21;39.73;99347.72;5007656;28;20211;-70
2021/03/28 11:23:32;;;;;;;3.67;2.20;;;;;;;11.73;40.72;99338.72;5021067;28;20231;-69
2021/03/28 11:26:43;;;;;;;3.23;2.53;;;;;;;12.16;39.85;99332.19;5016065;28;20676;-69
2021/03/28 11:29:29;;;;;;;5.43;2.73;;;;;;;12.07;39.08;99327.72;5019156;28;20258;-69
2021/03/28 11:32:02;;;;;;;3.80;2.43;;;;;;;11.95;39.51;99332.31;5015892;28;20224;-67
2021/03/28 11:34:34;;;;;;;2.17;1.97;;;;;;;12.22;38.81;99311.34;5018524;28;20204;-68
2021/03/28 11:37:05;;;;;;;5.40;2.43;;;;;;;12.39;38.93;99310.63;5019538;28;20270;-70
2021/03/28 11:39:33;;;;;;;3.60;2.13;;;;;;;12.55;38.37;99309.16;5018897;28;20839;-69
2021/03/28 11:42:03;;;;;;;5.30;2.50;;;;;;;12.36;37.54;99310.06;5017047;28;20228;-69
2021/03/28 11:44:32;;;;;;;4.00;2.20;;;;;;;12.55;37.06;99306.50;5019636;28;20676;-68
2021/03/28 11:47:05;;;;;;;3.80;2.10;;;;;;;12.58;37.77;99307.06;5016552;28;20223;-68
2021/03/28 11:49:49;;;;;;;7.10;2.40;;;;;;;13.10;37.54;99305.72;5018937;28;20211;-67
2021/03/28 11:52:21;;;;;;;2.50;2.20;;;;;;;13.02;36.71;99295.81;5018091;28;20715;-68
2021/03/28 11:55:14;;;;;;;3.80;2.30;;;;;;;13.66;35.60;99296.88;5020838;28;21292;-69
2021/03/28 11:57:42;;;;;;;5.13;2.37;;;;;;;13.66;35.94;99299.53;5007998;28;20223;-68
2021/03/28 12:00:23;;;;;;;6.17;2.57;;;;;;;13.82;35.02;99306.84;5021590;28;20211;-68
2021/03/28 12:03:22;;;;;;;2.83;2.27;;;;;;;13.52;34.92;99307.06;5020529;28;20743;-66
2021/03/28 12:05:52;;;;;;;2.40;2.20;;;;;;;14.45;34.18;99305.81;5018883;28;20477;-69
2021/03/28 12:08:21;;;;;;;4.17;2.23;;;;;;;15.25;32.64;99292.38;5024273;28;20289;-69
2021/03/28 12:10:49;;;;;;;5.80;2.87;;;;;;;14.89;33.72;99301.41;5022398;28;20204;-68
2021/03/28 12:13:36;;;;;;;3.67;2.40;;;;;;;13.32;35.97;99303.66;5021856;28;20220;-69
2021/03/28 12:16:06;;;;;;;3.27;2.30;;;;;;;13.13;36.45;99297.44;5019152;28;20216;-69
2021/03/28 12:18:59;;;;;;;4.93;2.43;;;;;;;13.11;36.19;99293.28;5021144;28;20319;-70
2021/03/28 12:21:43;;;;;;;5.53;3.07;;;;;;;13.57;35.44;99304.78;5011812;28;20595;-68
2021/03/28 12:24:12;;;;;;;3.30;2.43;;;;;;;13.50;35.07;99292.22;5017990;28;20285;-68
2021/03/28 12:27:05;;;;;;;2.90;2.20;;;;;;;13.71;36.19;99287.44;5021485;28;20208;-68
2021/03/28 12:29:41;;;;;;;3.27;2.77;;;;;;;14.17;34.22;99278.47;5006040;28;20204;-66
2021/03/28 12:32:48;;;;;;;81.67;53.80;;;;;;;14.30;33.12;99278.06;5022598;28;20278;-67
2021/03/28 12:35:20;;;;;;;3.77;3.37;;;;;;;14.89;33.20;99261.38;5020848;28;20208;-68
2021/03/28 12:37:48;;;;;;;13.33;11.93;;;;;;;15.84;33.21;99262.06;5021267;28;20212;-68
2021/03/28 12:40:27;;;;;;;3.47;3.20;;;;;;;15.65;31.76;99264.09;5021612;28;20208;-70
2021/03/28 12:42:55;;;;;;;2.70;2.33;;;;;;;16.13;30.33;99258.94;5020855;28;20411;-67
2021/03/28 12:45:32;;;;;;;2.90;2.60;;;;;;;15.22;31.61;99244.66;5020756;28;20439;-69
2021/03/28 12:48:03;;;;;;;3.53;2.63;;;;;;;13.32;35.00;99263.72;5022018;28;20204;-69
2021/03/28 12:50:32;;;;;;;2.53;2.07;;;;;;;14.08;34.12;99263.44;5021699;28;20695;-67
2021/03/28 12:53:06;;;;;;;2.27;2.07;;;;;;;15.58;31.91;99242.53;5020833;28;20228;-68
2021/03/28 12:55:44;;;;;;;2.13;1.97;;;;;;;16.75;30.52;99235.19;5018251;28;20740;-69
2021/03/28 12:58:15;;;;;;;3.37;2.40;;;;;;;16.96;28.86;99237.28;5020131;28;20230;-69
2021/03/28 13:00:50;;;;;;;2.93;2.20;;;;;;;18.03;27.62;99242.97;5022848;28;20197;-68
2021/03/28 13:03:33;;;;;;;3.37;2.47;;;;;;;16.98;28.30;99231.75;5019360;28;20219;-69
2021/03/28 13:06:23;;;;;;;2.70;2.17;;;;;;;17.66;27.46;99232.00;5020732;28;20204;-67
2021/03/28 13:08:53;;;;;;;2.83;2.03;;;;;;;16.62;29.67;99235.75;5017861;28;20235;-69